Time;durP1;ratioP1;P1;durP2;ratioP2;P2;SDS_P1;SDS_P2;PMS_P1;PMS_P2;Temp;Humidity;BMP_temperature;BMP_pressure;BME280_temperature;BME280_humidity;BME280_pressure;Samples;Min_cycle;Max_cycle;Signal;HPM_P1;HPM_P2
2021/11/12 00:14:35;;;;;;;112.18;76.20;;;11.60;99.90;;;;;;5047232;28;20312;-67
2021/11/12 00:17:09;;;;;;;76.13;53.05;;;11.60;99.90;;;;;;5082035;28;20729;-67
2021/11/12 00:19:36;;;;;;;118.78;77.35;;;11.60;99.90;;;;;;5080180;28;20281;-66
2021/11/12 00:22:04;;;;;;;76.43;53.78;;;11.60;99.90;;;;;;5074774;28;20984;-67
2021/11/12 00:24:31;;;;;;;63.08;43.75;;;11.60;99.90;;;;;;5089101;28;20847;-67
2021/11/12 00:27:00;;;;;;;54.85;39.00;;;11.60;99.90;;;;;;5085221;28;20688;-66
2021/11/12 00:29:27;;;;;;;60.80;46.00;;;11.60;99.90;;;;;;5087415;28;20231;-67
2021/11/12 00:32:02;;;;;;;64.85;46.20;;;11.60;99.90;;;;;;5076320;28;20228;-67
2021/11/12 00:37:25;;;;;;;71.15;52.75;;;11.60;99.90;;;;;;5077669;28;20580;-68
2021/11/12 00:39:58;;;;;;;57.80;40.00;;;11.60;99.90;;;;;;5091394;28;20219;-68
2021/11/12 00:42:29;;;;;;;101.53;70.72;;;11.60;99.90;;;;;;5086503;28;20243;-68
2021/11/12 00:45:02;;;;;;;74.05;55.33;;;11.60;99.90;;;;;;5080705;28;20219;-67
2021/11/12 00:47:39;;;;;;;60.40;40.17;;;11.60;99.90;;;;;;5078388;28;20231;-67
2021/11/12 00:50:28;;;;;;;56.30;38.58;;;11.60;99.90;;;;;;5070357;28;21161;-67
2021/11/12 00:55:43;;;;;;;50.85;36.20;;;11.60;99.90;;;;;;5089347;28;20311;-67
2021/11/12 00:58:13;;;;;;;77.03;53.88;;;11.60;99.90;;;;;;5090074;27;20243;-68
2021/11/12 01:00:40;;;;;;;84.95;59.00;;;11.60;99.90;;;;;;5077125;28;20227;-68
2021/11/12 01:03:07;;;;;;;90.05;55.30;;;11.60;99.90;;;;;;5089836;28;20239;-68
2021/11/12 01:05:34;;;;;;;54.47;41.20;;;11.60;99.90;;;;;;5087987;28;20227;-67
2021/11/12 01:08:02;;;;;;;63.17;44.33;;;11.60;99.90;;;;;;5082226;28;20939;-67
2021/11/12 01:10:31;;;;;;;57.53;39.08;;;11.60;99.90;;;;;;5074366;28;20231;-67
2021/11/12 01:12:59;;;;;;;126.43;78.57;;;11.60;99.90;;;;;;5075799;28;20220;-67
2021/11/12 01:15:26;;;;;;;50.58;37.45;;;11.60;99.90;;;;;;5072136;28;20223;-67
2021/11/12 01:17:54;;;;;;;50.15;36.10;;;11.60;99.90;;;;;;5075094;28;20281;-67
2021/11/12 01:20:22;;;;;;;50.65;33.65;;;11.60;99.90;;;;;;5081141;28;20603;-67
2021/11/12 01:22:49;;;;;;;123.70;93.35;;;11.60;99.90;;;;;;5076114;28;20563;-68
2021/11/12 01:25:20;;;;;;;99.95;66.22;;;11.60;99.90;;;;;;5078753;28;20231;-67
2021/11/12 01:27:47;;;;;;;194.48;117.18;;;11.60;99.90;;;;;;5090157;28;20227;-67
2021/11/12 01:30:16;;;;;;;46.33;33.75;;;11.60;99.90;;;;;;5091494;28;20227;-67
2021/11/12 01:32:43;;;;;;;75.57;52.47;;;11.60;99.90;;;;;;5091942;28;20223;-67
2021/11/12 01:35:11;;;;;;;64.10;41.83;;;11.60;99.90;;;;;;5091509;28;20441;-67
2021/11/12 01:37:43;;;;;;;60.25;41.40;;;11.60;99.90;;;;;;5081859;28;20216;-67
2021/11/12 01:40:18;;;;;;;43.80;28.58;;;11.60;99.90;;;;;;5093897;28;20381;-67
2021/11/12 01:43:07;;;;;;;41.78;30.73;;;11.70;99.90;;;;;;5084896;28;20301;-67
2021/11/12 01:51:23;;;;;;;45.13;31.00;;;11.70;99.90;;;;;;5065750;28;20345;-67
2021/11/12 01:54:07;;;;;;;43.45;30.67;;;11.60;99.90;;;;;;5076712;28;20356;-67
2021/11/12 01:56:39;;;;;;;41.03;28.30;;;11.70;99.90;;;;;;5095223;28;20844;-67
2021/11/12 01:59:17;;;;;;;44.25;31.58;;;11.70;99.90;;;;;;5092494;28;20684;-67
2021/11/12 02:01:47;;;;;;;45.75;30.05;;;11.70;99.90;;;;;;5080580;28;20224;-67
2021/11/12 02:04:16;;;;;;;41.75;28.08;;;11.70;99.90;;;;;;5081497;28;20670;-67
2021/11/12 02:06:44;;;;;;;37.30;26.95;;;11.70;99.90;;;;;;5078433;28;20224;-67
2021/11/12 02:09:15;;;;;;;38.25;26.50;;;11.70;99.90;;;;;;5090085;28;20243;-66
2021/11/12 02:11:44;;;;;;;107.28;67.15;;;11.70;99.90;;;;;;5079321;28;20259;-67
2021/11/12 02:14:13;;;;;;;60.97;42.67;;;11.70;99.90;;;;;;5074563;28;20228;-66
2021/11/12 02:16:43;;;;;;;69.78;49.05;;;11.60;99.90;;;;;;5074262;28;20235;-66
2021/11/12 02:19:11;;;;;;;44.53;30.98;;;11.60;99.90;;;;;;5074443;28;20232;-67
2021/11/12 02:21:46;;;;;;;76.30;53.03;;;11.70;99.90;;;;;;5074632;28;20278;-67
2021/11/12 02:24:14;;;;;;;60.55;41.53;;;11.70;99.90;;;;;;5074681;28;20302;-66
2021/11/12 02:26:43;;;;;;;46.30;30.35;;;11.70;99.90;;;;;;5074255;28;20570;-67
2021/11/12 02:29:15;;;;;;;39.88;29.67;;;11.80;99.90;;;;;;5074668;28;20235;-67
2021/11/12 02:31:43;;;;;;;62.28;37.50;;;11.80;99.90;;;;;;5073863;28;20244;-66
2021/11/12 02:34:12;;;;;;;49.20;34.88;;;11.80;99.90;;;;;;5072835;28;20842;-67
2021/11/12 02:36:42;;;;;;;62.95;44.88;;;11.80;99.90;;;;;;5089809;28;20223;-67
2021/11/12 02:39:12;;;;;;;42.72;30.88;;;11.90;99.90;;;;;;5088333;28;20248;-66
2021/11/12 02:41:39;;;;;;;65.78;44.97;;;12.00;99.90;;;;;;5071416;28;20216;-67
2021/11/12 02:44:07;;;;;;;39.92;30.50;;;12.00;99.90;;;;;;5073079;28;20615;-65
2021/11/12 02:46:34;;;;;;;59.10;40.42;;;12.00;99.90;;;;;;5072862;28;20227;-65
2021/11/12 02:49:02;;;;;;;42.67;28.83;;;12.00;99.90;;;;;;5073906;28;20313;-66
2021/11/12 02:51:32;;;;;;;39.67;25.80;;;12.00;99.90;;;;;;5073615;28;20232;-66
2021/11/12 02:54:04;;;;;;;32.75;23.45;;;12.10;99.90;;;;;;5074059;28;20231;-65
2021/11/12 02:56:32;;;;;;;34.15;22.52;;;12.10;99.90;;;;;;5073685;28;20220;-65
2021/11/12 02:59:03;;;;;;;25.23;19.90;;;12.10;99.90;;;;;;5074138;28;20231;-65
2021/11/12 03:01:31;;;;;;;37.85;27.35;;;12.20;99.90;;;;;;5079951;28;20238;-65
2021/11/12 03:03:58;;;;;;;35.03;24.33;;;12.20;99.90;;;;;;5094456;28;20223;-65
2021/11/12 03:06:25;;;;;;;38.22;26.55;;;12.10;99.90;;;;;;5093749;28;20238;-65
2021/11/12 03:08:53;;;;;;;40.83;26.05;;;12.10;99.90;;;;;;5094033;28;20254;-65
2021/11/12 03:11:21;;;;;;;33.15;24.52;;;12.10;99.90;;;;;;5094101;28;20235;-65
2021/11/12 03:13:49;;;;;;;39.65;26.80;;;12.10;99.90;;;;;;5093760;28;20227;-65
2021/11/12 03:16:17;;;;;;;37.50;27.17;;;12.10;99.90;;;;;;5094212;28;20743;-66
2021/11/12 03:18:45;;;;;;;29.45;23.00;;;12.10;99.90;;;;;;5093434;28;20227;-65
2021/11/12 03:21:14;;;;;;;34.35;24.20;;;12.10;99.90;;;;;;5093843;28;20224;-66
2021/11/12 03:23:46;;;;;;;37.83;25.60;;;12.10;99.90;;;;;;5093640;28;20565;-65
2021/11/12 04:02:49;;;;;;;48.63;30.73;;;11.90;99.90;;;;;;5089158;28;20292;-66
2021/11/12 04:19:19;;;;;;;62.85;42.67;;;11.90;99.90;;;;;;5092502;28;20690;-66
2021/11/12 05:45:09;;;;;;;36.15;22.92;;;11.80;99.90;;;;;;5095851;28;20225;-65
2021/11/12 05:50:22;;;;;;;29.55;20.23;;;11.80;99.90;;;;;;5095464;28;20986;-68
2021/11/12 05:55:33;;;;;;;32.95;21.17;;;11.90;99.90;;;;;;5096012;28;20720;-66
2021/11/12 05:58:01;;;;;;;36.63;23.13;;;11.90;99.90;;;;;;5095146;28;20219;-66
2021/11/12 06:00:29;;;;;;;39.67;22.60;;;11.90;99.90;;;;;;5095437;28;20231;-67
2021/11/12 06:02:59;;;;;;;31.92;21.70;;;11.90;99.90;;;;;;5095185;28;20231;-66
2021/11/12 06:05:26;;;;;;;37.22;23.45;;;11.90;99.90;;;;;;5095355;28;20231;-66
2021/11/12 06:07:53;;;;;;;36.40;23.95;;;11.90;99.90;;;;;;5094861;28;20253;-67
2021/11/12 06:10:20;;;;;;;33.22;23.25;;;11.80;99.90;;;;;;5095438;28;20227;-66
2021/11/12 06:12:48;;;;;;;39.20;25.95;;;11.90;99.90;;;;;;5094756;28;20228;-66
2021/11/12 06:15:17;;;;;;;39.88;24.23;;;11.90;99.90;;;;;;5095133;28;20688;-66
2021/11/12 06:17:45;;;;;;;38.47;25.45;;;11.90;99.90;;;;;;5094847;28;20224;-66
2021/11/12 06:20:13;;;;;;;37.20;22.90;;;11.90;99.90;;;;;;5094930;28;20234;-66
2021/11/12 06:22:40;;;;;;;38.97;24.50;;;11.90;99.90;;;;;;5094589;28;20701;-66
2021/11/12 06:25:08;;;;;;;42.00;23.83;;;11.90;99.90;;;;;;5094791;28;20220;-66
2021/11/12 06:27:35;;;;;;;41.97;24.67;;;11.90;99.90;;;;;;5094998;28;20234;-66
2021/11/12 06:30:02;;;;;;;49.13;27.88;;;11.90;99.90;;;;;;5094376;28;20710;-66
2021/11/12 06:32:31;;;;;;;50.55;25.60;;;11.90;99.90;;;;;;5094740;28;20550;-66
2021/11/12 06:34:57;;;;;;;40.17;22.17;;;11.90;99.90;;;;;;5094360;28;20219;-67
2021/11/12 06:37:24;;;;;;;51.85;29.50;;;11.80;99.90;;;;;;5094808;28;20697;-66
2021/11/12 06:39:51;;;;;;;51.85;29.67;;;11.90;99.90;;;;;;5094196;28;20235;-66
2021/11/12 06:42:19;;;;;;;54.60;31.30;;;11.90;99.90;;;;;;5094684;28;20258;-66
2021/11/12 06:50:16;;;;;;;49.58;27.67;;;11.80;99.90;;;;;;5094952;28;20825;-66
2021/11/12 06:52:48;;;;;;;48.13;26.67;;;11.80;99.90;;;;;;5094147;28;20223;-66
2021/11/12 06:55:16;;;;;;;45.25;26.30;;;11.80;99.90;;;;;;5094296;28;20235;-66
2021/11/12 06:57:44;;;;;;;49.00;27.20;;;11.80;99.90;;;;;;5094040;28;20219;-66
2021/11/12 07:00:15;;;;;;;49.85;25.90;;;11.70;99.90;;;;;;5094227;28;20235;-66
2021/11/12 07:02:43;;;;;;;45.88;26.77;;;11.70;99.90;;;;;;5093964;28;20284;-66
2021/11/12 07:05:12;;;;;;;52.33;28.15;;;11.70;99.90;;;;;;5094226;28;20325;-65
2021/11/12 07:07:39;;;;;;;46.58;29.38;;;11.70;99.90;;;;;;5093900;28;20681;-66
2021/11/12 07:10:08;;;;;;;51.00;28.52;;;11.70;99.90;;;;;;5093932;28;20224;-65
2021/11/12 07:12:35;;;;;;;53.40;29.20;;;11.70;99.90;;;;;;5093675;28;20227;-65
2021/11/12 07:15:02;;;;;;;48.53;27.40;;;11.70;99.90;;;;;;5094012;28;20219;-65
2021/11/12 07:17:28;;;;;;;46.90;27.95;;;11.60;99.90;;;;;;5093574;28;20219;-65
2021/11/12 07:19:57;;;;;;;48.97;28.80;;;11.60;99.90;;;;;;5094001;28;20598;-65
2021/11/12 07:22:24;;;;;;;45.42;28.15;;;11.60;99.90;;;;;;5093485;28;20321;-65
2021/11/12 07:24:51;;;;;;;46.33;26.02;;;11.60;99.90;;;;;;5093574;28;20219;-66
2021/11/12 07:27:18;;;;;;;46.35;25.55;;;11.60;99.90;;;;;;5093810;28;20238;-66
2021/11/12 07:29:46;;;;;;;37.50;23.63;;;11.60;99.90;;;;;;5093384;28;20599;-66
2021/11/12 07:32:13;;;;;;;39.92;23.58;;;11.60;99.90;;;;;;5093492;28;20227;-66
2021/11/12 07:34:41;;;;;;;40.72;23.73;;;11.60;99.90;;;;;;5093243;28;20223;-66
2021/11/12 07:37:11;;;;;;;42.85;25.10;;;11.50;99.90;;;;;;5092917;28;20238;-66
2021/11/12 07:42:40;;;;;;;36.28;22.42;;;11.50;99.90;;;;;;5091532;28;20316;-66
2021/11/12 07:45:13;;;;;;;40.40;23.30;;;11.50;99.90;;;;;;5093344;28;20226;-66
2021/11/12 07:47:40;;;;;;;41.33;25.02;;;11.50;99.90;;;;;;5093591;28;20240;-66
2021/11/12 07:50:10;;;;;;;38.60;24.90;;;11.50;99.90;;;;;;5092745;28;20238;-65
2021/11/12 07:52:39;;;;;;;35.25;23.88;;;11.50;99.90;;;;;;5093275;28;20226;-66
2021/11/12 07:55:11;;;;;;;45.72;27.77;;;11.50;99.90;;;;;;5092861;28;20231;-66
2021/11/12 07:57:38;;;;;;;36.58;24.75;;;11.50;99.90;;;;;;5093527;28;20788;-65
2021/11/12 08:00:07;;;;;;;39.53;24.38;;;11.60;99.90;;;;;;5093195;28;20617;-65
2021/11/12 08:02:34;;;;;;;41.42;26.25;;;11.60;99.90;;;;;;5092667;28;20218;-65
2021/11/12 08:05:07;;;;;;;37.35;22.60;;;11.60;99.90;;;;;;5093176;28;20226;-65
2021/11/12 08:07:34;;;;;;;36.38;24.40;;;11.60;99.90;;;;;;5092947;28;20241;-65
2021/11/12 08:10:05;;;;;;;40.78;25.48;;;11.70;99.90;;;;;;5092700;28;20234;-65
2021/11/12 08:12:34;;;;;;;52.90;32.83;;;11.70;99.90;;;;;;5092642;28;20311;-65
2021/11/12 08:15:14;;;;;;;47.08;31.70;;;11.70;99.90;;;;;;5092955;28;20227;-65
2021/11/12 08:17:47;;;;;;;38.60;26.15;;;11.80;99.90;;;;;;5092612;28;20218;-65
2021/11/12 08:20:20;;;;;;;39.50;24.00;;;11.80;99.90;;;;;;5092821;28;20715;-65
2021/11/12 08:22:54;;;;;;;38.75;25.33;;;11.70;99.90;;;;;;5092566;28;20296;-67
2021/11/12 08:25:26;;;;;;;40.88;23.10;;;11.80;99.90;;;;;;5092783;28;20250;-67
2021/11/12 08:28:13;;;;;;;40.65;24.25;;;11.80;99.90;;;;;;5092683;28;20756;-67
2021/11/12 08:30:55;;;;;;;33.20;21.67;;;11.70;99.90;;;;;;5092103;28;20577;-65
2021/11/12 08:33:30;;;;;;;38.00;23.42;;;11.80;99.90;;;;;;5092675;27;20691;-65
2021/11/12 08:36:20;;;;;;;38.97;23.13;;;11.80;99.90;;;;;;5092228;28;20222;-66
2021/11/12 08:38:56;;;;;;;38.70;24.55;;;11.80;99.90;;;;;;5092129;28;20235;-65
2021/11/12 08:41:28;;;;;;;36.30;23.58;;;11.70;99.90;;;;;;5092647;28;20280;-66
2021/11/12 08:43:58;;;;;;;38.35;24.48;;;11.70;99.90;;;;;;5092359;28;20250;-66
2021/11/12 08:46:29;;;;;;;40.10;26.30;;;11.70;99.90;;;;;;5092562;28;20249;-66
2021/11/12 08:49:01;;;;;;;43.25;28.80;;;11.70;99.90;;;;;;5095931;28;20245;-66
2021/11/12 08:51:33;;;;;;;41.88;24.98;;;11.70;99.90;;;;;;5096758;28;20231;-66
2021/11/12 08:54:01;;;;;;;41.55;27.27;;;11.70;99.90;;;;;;5096507;28;20222;-66
2021/11/12 08:56:30;;;;;;;43.78;26.20;;;11.70;99.90;;;;;;5096511;28;20227;-66
2021/11/12 08:58:57;;;;;;;37.72;24.45;;;11.70;99.90;;;;;;5096296;28;20222;-66
2021/11/12 09:01:25;;;;;;;44.95;26.02;;;11.70;99.90;;;;;;5096666;28;20258;-66
2021/11/12 09:03:54;;;;;;;42.38;25.10;;;11.70;99.90;;;;;;5095965;28;20218;-66
2021/11/12 09:06:21;;;;;;;38.10;22.88;;;11.70;99.90;;;;;;5096604;28;20215;-67
2021/11/12 09:08:48;;;;;;;33.15;20.88;;;11.70;99.90;;;;;;5095856;28;20227;-66
2021/11/12 09:11:15;;;;;;;34.60;22.35;;;11.70;99.90;;;;;;5096430;28;20242;-66
2021/11/12 09:13:46;;;;;;;34.35;22.48;;;11.80;99.90;;;;;;5096076;28;20231;-66
2021/11/12 09:16:15;;;;;;;38.97;23.10;;;11.80;99.90;;;;;;5096250;28;20296;-67
2021/11/12 09:18:43;;;;;;;40.67;25.23;;;11.80;99.90;;;;;;5095733;28;20258;-66
2021/11/12 09:21:10;;;;;;;39.45;25.88;;;11.80;99.90;;;;;;5096247;28;20219;-66
2021/11/12 09:23:38;;;;;;;47.80;24.95;;;11.80;99.90;;;;;;5095683;28;20234;-66
2021/11/12 09:26:05;;;;;;;42.97;27.40;;;11.80;99.90;;;;;;5096167;28;20223;-66
2021/11/12 09:28:33;;;;;;;42.92;28.17;;;11.90;99.90;;;;;;5096265;28;20611;-66
2021/11/12 09:31:02;;;;;;;37.72;22.88;;;11.90;99.90;;;;;;5095442;28;20215;-66
2021/11/12 09:33:29;;;;;;;37.03;24.02;;;11.90;99.90;;;;;;5096048;28;20554;-66
2021/11/12 09:35:57;;;;;;;30.50;20.25;;;11.90;99.90;;;;;;5095534;28;20223;-66
2021/11/12 09:38:24;;;;;;;32.05;20.17;;;11.90;99.90;;;;;;5096031;28;20223;-66
2021/11/12 09:40:51;;;;;;;31.23;19.67;;;12.00;99.90;;;;;;5095374;28;20224;-66
2021/11/12 09:43:18;;;;;;;35.08;20.20;;;12.00;99.90;;;;;;5095989;28;20219;-66
2021/11/12 09:45:45;;;;;;;33.47;21.00;;;12.00;99.90;;;;;;5095371;28;20215;-66
2021/11/12 09:48:14;;;;;;;27.95;18.92;;;12.00;99.90;;;;;;5095841;28;20302;-66
2021/11/12 09:50:41;;;;;;;33.33;20.42;;;12.00;99.90;;;;;;5095356;28;20235;-66
2021/11/12 09:53:08;;;;;;;31.13;18.77;;;12.00;99.90;;;;;;5095441;28;20296;-66
2021/11/12 09:55:35;;;;;;;27.40;17.50;;;12.10;99.90;;;;;;5095632;28;20227;-67
2021/11/12 09:58:04;;;;;;;25.67;17.85;;;12.10;99.90;;;;;;5095248;28;20219;-66
2021/11/12 10:00:33;;;;;;;23.38;17.90;;;12.20;99.90;;;;;;5094607;28;20237;-66
2021/11/12 10:03:02;;;;;;;29.27;18.48;;;12.20;99.90;;;;;;5094951;28;20665;-66
2021/11/12 10:05:39;;;;;;;27.35;19.05;;;12.20;99.90;;;;;;5095404;28;20235;-66
2021/11/12 10:08:23;;;;;;;23.70;16.35;;;12.30;99.90;;;;;;5095152;28;20960;-66
2021/11/12 10:10:53;;;;;;;22.20;15.00;;;12.30;99.90;;;;;;5094768;28;20235;-66
2021/11/12 10:13:24;;;;;;;20.80;15.07;;;12.30;99.90;;;;;;5095334;28;20623;-66
2021/11/12 10:16:02;;;;;;;24.90;16.45;;;12.40;99.90;;;;;;5094810;28;20669;-66
2021/11/12 10:18:29;;;;;;;21.15;13.93;;;12.40;99.90;;;;;;5095497;28;20677;-66
2021/11/12 10:21:03;;;;;;;19.15;12.23;;;12.40;99.90;;;;;;5094558;28;20614;-67
2021/11/12 10:23:32;;;;;;;17.45;13.32;;;12.40;99.90;;;;;;5094868;28;20234;-66
2021/11/12 10:26:04;;;;;;;17.92;14.43;;;12.40;99.90;;;;;;5094813;28;20227;-66
2021/11/12 10:28:39;;;;;;;18.00;14.00;;;12.30;99.90;;;;;;5095140;28;20589;-66
2021/11/12 10:31:18;;;;;;;18.77;14.52;;;12.30;99.90;;;;;;5094437;28;20243;-66
2021/11/12 10:33:49;;;;;;;20.27;16.60;;;12.30;99.90;;;;;;5094296;28;20230;-66
2021/11/12 10:36:19;;;;;;;19.40;15.60;;;12.30;99.90;;;;;;5094892;28;20239;-66
2021/11/12 10:38:49;;;;;;;18.80;16.27;;;12.30;99.90;;;;;;5094300;28;20258;-67
2021/11/12 10:41:19;;;;;;;15.25;12.52;;;12.30;99.90;;;;;;5094660;28;20305;-66
2021/11/12 10:43:46;;;;;;;15.65;11.68;;;12.30;99.90;;;;;;5094410;28;20696;-66
2021/11/12 10:46:13;;;;;;;18.67;13.32;;;12.30;99.90;;;;;;5094692;28;20261;-67
2021/11/12 10:48:40;;;;;;;19.42;13.30;;;12.20;99.90;;;;;;5094740;28;20234;-66
2021/11/12 10:51:29;;;;;;;16.55;13.70;;;12.20;99.90;;;;;;5094126;28;20227;-66
2021/11/12 10:53:56;;;;;;;17.77;14.38;;;12.20;99.90;;;;;;5094326;28;20227;-67
2021/11/12 10:56:24;;;;;;;17.70;12.75;;;12.20;99.90;;;;;;5094619;28;20598;-66
2021/11/12 10:59:02;;;;;;;15.10;11.32;;;12.20;99.90;;;;;;5093731;28;20623;-66
2021/11/12 11:01:35;;;;;;;13.70;10.80;;;12.20;99.90;;;;;;5094391;28;20234;-66
2021/11/12 11:04:19;;;;;;;18.85;14.65;;;12.20;99.90;;;;;;5093849;28;20227;-66
2021/11/12 11:06:48;;;;;;;18.40;13.93;;;12.20;99.90;;;;;;5093872;28;20276;-66
2021/11/12 11:09:15;;;;;;;15.50;12.88;;;12.20;99.90;;;;;;5094019;28;20238;-66
2021/11/12 11:11:42;;;;;;;16.33;13.85;;;12.20;99.90;;;;;;5093076;28;20231;-66
2021/11/12 11:14:28;;;;;;;17.55;14.52;;;12.20;99.90;;;;;;5093634;28;20330;-66
2021/11/12 11:16:55;;;;;;;16.27;13.52;;;12.30;99.90;;;;;;5093770;28;20306;-66
2021/11/12 11:19:36;;;;;;;20.60;14.73;;;12.40;99.90;;;;;;5094040;28;20288;-66
2021/11/12 11:22:10;;;;;;;19.35;15.43;;;12.40;99.90;;;;;;5093541;28;20620;-66
2021/11/12 11:24:38;;;;;;;18.85;14.77;;;12.40;99.90;;;;;;5093925;28;20255;-66
2021/11/12 11:27:07;;;;;;;16.00;13.70;;;12.30;99.90;;;;;;5093536;28;20223;-66
2021/11/12 11:29:36;;;;;;;16.75;13.75;;;12.20;99.90;;;;;;5093853;28;20250;-66
2021/11/12 11:32:03;;;;;;;17.05;13.07;;;12.10;99.90;;;;;;5093192;28;20226;-67
2021/11/12 11:34:30;;;;;;;15.35;13.73;;;12.10;99.90;;;;;;5093627;28;20234;-66
2021/11/12 11:37:00;;;;;;;16.65;14.82;;;12.20;99.90;;;;;;5092519;28;20296;-66
2021/11/12 11:39:31;;;;;;;16.92;13.00;;;12.20;99.90;;;;;;5093635;28;20230;-66
2021/11/12 11:41:59;;;;;;;18.15;15.55;;;12.20;99.90;;;;;;5073383;28;20224;-66
2021/11/12 11:44:26;;;;;;;18.50;14.50;;;12.20;99.90;;;;;;5073461;28;20232;-66
2021/11/12 11:46:54;;;;;;;16.90;13.43;;;12.30;99.90;;;;;;5072910;28;20216;-66
2021/11/12 11:49:23;;;;;;;19.65;14.25;;;12.30;99.90;;;;;;5073174;28;20579;-66
2021/11/12 11:51:52;;;;;;;15.70;14.02;;;12.30;99.90;;;;;;5072828;28;20281;-66
2021/11/12 11:54:21;;;;;;;15.63;13.85;;;12.40;99.90;;;;;;5073036;28;20219;-66
2021/11/12 11:56:51;;;;;;;17.27;14.48;;;12.40;99.90;;;;;;5073165;28;20227;-67
2021/11/12 11:59:20;;;;;;;21.20;15.77;;;12.50;99.90;;;;;;5072881;28;20662;-66
2021/11/12 12:01:50;;;;;;;17.67;14.18;;;12.40;99.90;;;;;;5073040;28;20219;-67
2021/11/12 12:04:33;;;;;;;15.10;13.18;;;12.40;99.90;;;;;;5072709;28;20285;-66
2021/11/12 12:07:27;;;;;;;15.93;12.43;;;12.50;99.90;;;;;;5072426;28;20216;-67
2021/11/12 12:10:13;;;;;;;19.20;12.70;;;12.60;99.90;;;;;;5072786;28;20290;-67
2021/11/12 12:12:49;;;;;;;15.60;12.77;;;12.60;99.90;;;;;;5072881;28;20215;-67
2021/11/12 12:15:43;;;;;;;13.23;11.55;;;12.60;99.90;;;;;;5072796;28;20223;-67
2021/11/12 12:18:31;;;;;;;12.65;11.35;;;12.50;99.90;;;;;;5073259;28;20558;-67
2021/11/12 12:21:51;;;;;;;13.57;12.15;;;12.40;99.90;;;;;;5076927;28;20307;-67
2021/11/12 12:31:08;;;;;;;13.40;11.13;;;12.40;99.90;;;;;;5089631;28;20322;-67
2021/11/12 13:22:17;;;;;;;15.65;12.48;;;12.10;99.90;;;;;;5071675;28;20611;-66
2021/11/12 13:24:52;;;;;;;11.85;10.55;;;12.00;99.90;;;;;;5071726;28;20569;-67
2021/11/12 13:27:19;;;;;;;12.25;10.52;;;12.10;99.90;;;;;;5072214;28;20791;-66
2021/11/12 13:29:46;;;;;;;9.57;8.52;;;12.10;99.90;;;;;;5099571;28;20283;-66
2021/11/12 13:32:13;;;;;;;9.50;8.50;;;12.00;99.90;;;;;;5112382;28;20246;-66
2021/11/12 13:34:44;;;;;;;9.35;7.13;;;12.00;99.90;;;;;;5114021;28;20230;-66
2021/11/12 13:37:18;;;;;;;9.05;8.10;;;12.10;99.90;;;;;;5116087;28;21054;-65
2021/11/12 13:39:46;;;;;;;9.35;8.35;;;12.10;99.90;;;;;;5116227;28;20258;-65
2021/11/12 13:42:13;;;;;;;11.50;8.80;;;12.00;99.90;;;;;;5116015;28;20900;-65
2021/11/12 13:44:42;;;;;;;8.70;7.82;;;12.00;99.90;;;;;;5116068;28;20226;-64
2021/11/12 13:47:11;;;;;;;11.43;8.38;;;12.00;99.90;;;;;;5115479;28;20634;-65
2021/11/12 13:49:40;;;;;;;9.63;8.15;;;11.90;99.90;;;;;;5116032;28;20355;-65
2021/11/12 13:52:09;;;;;;;8.20;7.38;;;11.90;99.90;;;;;;5115741;28;20237;-65
2021/11/12 13:54:43;;;;;;;8.57;7.68;;;11.80;99.90;;;;;;5115918;28;20219;-64
2021/11/12 13:57:16;;;;;;;8.40;6.40;;;11.80;99.90;;;;;;5099147;28;20223;-65
2021/11/12 13:59:54;;;;;;;8.52;6.30;;;11.80;99.90;;;;;;5095459;28;20227;-65
2021/11/12 14:02:21;;;;;;;7.45;6.72;;;11.70;99.90;;;;;;5095596;28;20665;-64
2021/11/12 14:04:48;;;;;;;9.82;8.00;;;11.80;99.90;;;;;;5085652;28;20559;-64
2021/11/12 14:07:16;;;;;;;9.93;6.65;;;11.70;99.90;;;;;;5074985;28;20697;-65
2021/11/12 14:09:44;;;;;;;8.68;7.28;;;11.60;99.90;;;;;;5075113;28;20235;-65
2021/11/12 14:12:13;;;;;;;9.07;7.40;;;11.70;99.90;;;;;;5074623;28;20327;-65
2021/11/12 14:14:43;;;;;;;8.48;7.43;;;11.70;99.90;;;;;;5075230;28;20216;-65
2021/11/12 14:17:27;;;;;;;8.43;7.40;;;11.70;99.90;;;;;;5074677;28;20603;-65
2021/11/12 14:20:18;;;;;;;8.25;7.43;;;11.70;99.90;;;;;;5074980;28;20240;-65
2021/11/12 14:22:50;;;;;;;7.60;6.57;;;11.60;99.90;;;;;;5074684;28;20774;-65
2021/11/12 14:28:22;;;;;;;8.65;7.75;;;11.50;99.90;;;;;;5013387;28;20696;-65
2021/11/12 14:33:51;;;;;;;7.43;6.72;;;11.50;99.90;;;;;;5061223;28;20226;-65
2021/11/12 14:36:30;;;;;;;9.40;7.55;;;11.50;99.90;;;;;;5074639;28;20620;-64
2021/11/12 14:39:15;;;;;;;10.05;8.38;;;11.50;99.90;;;;;;5074186;28;21033;-65
2021/11/12 14:45:08;;;;;;;12.10;7.97;;;11.40;99.90;;;;;;5073816;28;20231;-64
2021/11/12 14:50:27;;;;;;;13.40;11.95;;;11.30;99.90;;;;;;5073053;28;20231;-65
2021/11/12 14:53:29;;;;;;;12.10;10.48;;;11.30;99.90;;;;;;5073859;28;20243;-65
2021/11/12 14:56:05;;;;;;;14.15;10.77;;;11.30;99.90;;;;;;5073846;28;20245;-65
2021/11/12 14:58:35;;;;;;;13.30;10.95;;;11.30;99.90;;;;;;5074151;28;20641;-65
2021/11/12 15:01:07;;;;;;;11.23;10.02;;;11.20;99.90;;;;;;5073847;28;20313;-64
2021/11/12 15:03:34;;;;;;;18.95;11.55;;;11.10;99.90;;;;;;5074257;28;20216;-65
2021/11/12 15:06:02;;;;;;;17.48;9.40;;;11.10;99.90;;;;;;5073595;28;20223;-65
2021/11/12 15:08:30;;;;;;;21.25;12.13;;;11.10;99.90;;;;;;5073892;28;20224;-65
2021/11/12 15:10:58;;;;;;;13.50;10.90;;;11.10;99.90;;;;;;5073635;28;20251;-65
2021/11/12 15:13:28;;;;;;;13.52;10.80;;;11.00;99.90;;;;;;5073889;28;20550;-65
2021/11/12 15:16:00;;;;;;;14.05;11.50;;;11.10;99.90;;;;;;5073390;28;20220;-64
2021/11/12 15:18:27;;;;;;;13.38;10.50;;;11.10;99.90;;;;;;5073778;28;20239;-67
2021/11/12 15:20:56;;;;;;;12.73;10.20;;;11.10;99.90;;;;;;5073188;28;20251;-65
2021/11/12 15:26:26;;;;;;;13.98;11.45;;;11.20;99.90;;;;;;5037678;28;20216;-65
2021/11/12 15:29:06;;;;;;;16.02;11.35;;;11.20;99.90;;;;;;5086677;28;20218;-65
2021/11/12 15:31:38;;;;;;;17.55;11.98;;;11.20;99.90;;;;;;5113694;27;20226;-65
2021/11/12 15:34:07;;;;;;;15.52;11.75;;;11.30;99.90;;;;;;5114320;27;20222;-65
2021/11/12 15:36:42;;;;;;;14.07;11.20;;;11.30;99.90;;;;;;5113670;28;20301;-66
2021/11/12 15:39:10;;;;;;;14.55;11.00;;;11.20;99.90;;;;;;5113817;27;20230;-66
2021/11/12 15:44:37;;;;;;;19.20;13.93;;;11.30;99.90;;;;;;5070936;28;20658;-66
2021/11/12 15:47:08;;;;;;;15.82;13.27;;;11.20;99.90;;;;;;5071531;28;20216;-66
2021/11/12 15:49:37;;;;;;;14.68;13.15;;;11.10;99.90;;;;;;5090481;28;20569;-66
2021/11/12 15:52:08;;;;;;;16.73;12.57;;;11.10;99.90;;;;;;5113812;27;20225;-66
2021/11/12 15:54:46;;;;;;;16.15;13.90;;;11.10;99.90;;;;;;5113512;28;20226;-66
2021/11/12 16:00:08;;;;;;;14.10;12.40;;;11.30;99.90;;;;;;5095446;28;20318;-66
2021/11/12 16:02:53;;;;;;;16.73;12.95;;;11.30;99.90;;;;;;5113195;28;20234;-66
2021/11/12 16:08:08;;;;;;;16.40;14.70;;;11.30;99.90;;;;;;5113230;28;20238;-66
2021/11/12 16:13:26;;;;;;;16.80;12.70;;;11.30;99.90;;;;;;5074016;28;20358;-66
2021/11/12 16:18:49;;;;;;;17.58;15.43;;;11.30;99.90;;;;;;5113153;28;20242;-66
2021/11/12 16:27:00;;;;;;;20.05;15.90;;;11.30;99.90;;;;;;5031063;28;20236;-66
2021/11/12 16:29:44;;;;;;;18.30;14.55;;;11.30;99.90;;;;;;5076492;28;20233;-66
2021/11/12 16:32:20;;;;;;;21.85;18.08;;;11.30;99.90;;;;;;5112576;28;20222;-66
2021/11/12 16:34:50;;;;;;;31.92;26.35;;;11.30;99.90;;;;;;5113226;28;20618;-66
2021/11/12 16:37:19;;;;;;;34.67;26.67;;;11.40;99.90;;;;;;5112629;28;20225;-66
2021/11/12 16:39:49;;;;;;;21.90;17.40;;;11.40;99.90;;;;;;5113055;28;20222;-66
2021/11/12 16:45:07;;;;;;;18.02;15.68;;;11.30;99.90;;;;;;5109263;28;20271;-66
2021/11/12 16:50:35;;;;;;;29.23;21.50;;;11.30;99.90;;;;;;5108763;28;20239;-65
2021/11/12 16:53:12;;;;;;;26.55;19.05;;;11.30;99.90;;;;;;5112960;28;20999;-66
2021/11/12 16:58:31;;;;;;;25.80;16.67;;;11.40;99.90;;;;;;5094434;28;20230;-66
2021/11/12 17:03:57;;;;;;;18.27;14.60;;;11.40;99.90;;;;;;5112594;28;20229;-66
2021/11/12 17:06:28;;;;;;;18.33;15.90;;;11.50;99.90;;;;;;5112379;28;20233;-66
2021/11/12 17:09:11;;;;;;;24.70;17.23;;;11.50;99.90;;;;;;5114878;27;20222;-66
2021/11/12 17:11:42;;;;;;;19.48;15.35;;;11.50;99.90;;;;;;5116628;28;20306;-66
2021/11/12 17:19:42;;;;;;;21.30;16.20;;;11.60;99.90;;;;;;5115042;27;20665;-66
2021/11/12 17:46:49;;;;;;;22.92;17.40;;;11.30;99.90;;;;;;5116819;27;20286;-66
2021/11/12 17:49:31;;;;;;;23.25;15.80;;;11.30;99.90;;;;;;5116076;28;20226;-66
2021/11/12 17:52:09;;;;;;;23.00;16.95;;;11.30;99.90;;;;;;5115571;27;20619;-66